Time;durP1;ratioP1;P1;durP2;ratioP2;P2;SDS_P1;SDS_P2;PMS_P1;PMS_P2;Temp;Humidity;BMP_temperature;BMP_pressure;BME280_temperature;BME280_humidity;BME280_pressure;Samples;Min_cycle;Max_cycle;Signal;HPM_P1;HPM_P2
2022/10/02 00:03:27;;;;;;;8.13;5.50;;;16.90;79.00;;;;;;10729888;33;20032;-75
2022/10/02 00:09:36;;;;;;;11.55;6.62;;;16.90;79.00;;;;;;10805009;33;20020;-75
2022/10/02 00:15:41;;;;;;;9.15;5.22;;;16.90;79.10;;;;;;10805321;33;20016;-75
2022/10/02 00:22:20;;;;;;;10.93;5.93;;;16.90;79.10;;;;;;10804641;33;20028;-75
2022/10/02 00:28:41;;;;;;;6.53;5.20;;;16.90;79.10;;;;;;10816140;32;20024;-76
2022/10/02 00:35:02;;;;;;;6.97;5.07;;;16.80;79.50;;;;;;10801973;33;20321;-75
2022/10/02 00:41:20;;;;;;;6.82;5.00;;;16.90;79.60;;;;;;10800600;33;20024;-76
2022/10/02 00:47:25;;;;;;;8.55;6.05;;;16.80;79.60;;;;;;10804466;33;20024;-75
2022/10/02 00:54:01;;;;;;;7.07;5.00;;;16.80;79.70;;;;;;10791314;33;20357;-75
2022/10/02 01:00:19;;;;;;;6.10;3.80;;;16.70;79.80;;;;;;10796618;32;20028;-76
2022/10/02 01:06:26;;;;;;;6.22;4.57;;;16.70;79.80;;;;;;10794095;33;20050;-75
2022/10/02 01:12:28;;;;;;;5.47;3.55;;;16.70;79.80;;;;;;10797839;33;20047;-75
2022/10/02 01:18:30;;;;;;;5.90;3.85;;;16.60;79.80;;;;;;10797988;33;20051;-75
2022/10/02 01:24:53;;;;;;;4.60;2.83;;;16.60;79.90;;;;;;10797652;33;20050;-75
2022/10/02 01:31:09;;;;;;;4.97;3.45;;;16.60;80.00;;;;;;10797636;33;20249;-75
2022/10/02 01:37:11;;;;;;;4.72;3.47;;;16.50;80.00;;;;;;10793017;33;20340;-75
2022/10/02 01:43:20;;;;;;;7.32;4.85;;;16.50;80.20;;;;;;10797093;33;20447;-75
2022/10/02 01:50:03;;;;;;;7.05;4.85;;;16.50;80.20;;;;;;10796892;33;20341;-74
2022/10/02 01:56:14;;;;;;;8.73;5.70;;;16.40;80.30;;;;;;10795577;33;20032;-75
2022/10/02 02:02:49;;;;;;;8.25;4.95;;;16.40;80.50;;;;;;10796388;33;20064;-75
2022/10/02 02:09:16;;;;;;;7.50;6.32;;;16.40;80.50;;;;;;10794410;33;20020;-74
2022/10/02 02:15:27;;;;;;;5.57;4.20;;;16.30;80.50;;;;;;10795800;33;20020;-74
2022/10/02 02:28:19;;;;;;;5.78;4.25;;;16.20;80.50;;;;;;10715830;33;20412;-74
2022/10/02 02:34:27;;;;;;;8.27;4.85;;;16.20;80.60;;;;;;10718296;33;20037;-74
2022/10/02 02:40:31;;;;;;;7.25;5.68;;;16.30;80.90;;;;;;10718137;33;20017;-74
2022/10/02 02:47:03;;;;;;;4.97;3.30;;;16.30;80.80;;;;;;10717566;33;20067;-74
2022/10/02 02:53:11;;;;;;;5.37;3.40;;;16.20;80.80;;;;;;10714584;33;20029;-75
2022/10/02 02:59:13;;;;;;;5.55;4.28;;;16.00;81.00;;;;;;10718418;33;20048;-75
2022/10/02 03:05:41;;;;;;;5.62;4.28;;;15.90;81.00;;;;;;10787391;33;20097;-76
2022/10/02 03:12:01;;;;;;;6.35;4.50;;;15.90;81.00;;;;;;10793847;33;20012;-75
2022/10/02 03:18:37;;;;;;;10.80;7.10;;;15.80;81.10;;;;;;10793749;33;20029;-76
2022/10/02 03:25:34;;;;;;;8.00;5.40;;;15.90;81.50;;;;;;10778398;33;20337;-76
2022/10/02 03:31:36;;;;;;;8.27;5.50;;;16.00;81.30;;;;;;10717848;33;20059;-76
2022/10/02 03:37:45;;;;;;;7.37;5.10;;;16.00;81.30;;;;;;10716870;33;20033;-76
2022/10/02 03:44:06;;;;;;;7.80;5.22;;;15.90;81.20;;;;;;10715357;33;20041;-76
2022/10/02 03:50:14;;;;;;;7.68;5.20;;;15.80;81.30;;;;;;10712244;33;20033;-76
2022/10/02 03:56:26;;;;;;;4.72;2.67;;;15.80;81.30;;;;;;10716172;33;20091;-76
2022/10/02 04:02:48;;;;;;;8.43;5.22;;;15.70;81.40;;;;;;10718168;33;20415;-76
2022/10/02 04:09:01;;;;;;;8.05;5.03;;;15.70;81.50;;;;;;10792745;33;20032;-74
2022/10/02 04:15:34;;;;;;;6.40;5.25;;;15.70;81.50;;;;;;10792789;33;20333;-75
2022/10/02 04:21:58;;;;;;;5.47;3.73;;;15.70;81.60;;;;;;10792689;33;20302;-76
2022/10/02 04:28:24;;;;;;;6.45;3.35;;;15.80;81.50;;;;;;10792421;33;20017;-74
2022/10/02 04:34:27;;;;;;;4.10;3.08;;;15.70;81.50;;;;;;10798674;33;20059;-74
2022/10/02 04:41:04;;;;;;;6.78;4.50;;;15.70;81.60;;;;;;10799261;33;20051;-75
2022/10/02 04:47:15;;;;;;;6.60;4.25;;;15.60;81.80;;;;;;10783502;33;20082;-75
2022/10/02 04:53:53;;;;;;;5.90;4.78;;;15.70;81.90;;;;;;10785765;33;20020;-74
2022/10/02 05:00:10;;;;;;;4.30;3.30;;;15.70;81.80;;;;;;10783758;33;20066;-74
2022/10/02 05:13:31;;;;;;;7.28;4.65;;;15.50;81.90;;;;;;10798361;33;20024;-75
2022/10/02 05:20:00;;;;;;;5.78;4.20;;;15.50;82.20;;;;;;10797638;33;20074;-74
2022/10/02 05:26:13;;;;;;;6.60;4.53;;;15.50;82.10;;;;;;10797751;33;20029;-75
2022/10/02 05:32:19;;;;;;;5.68;4.03;;;15.50;82.10;;;;;;10784354;33;20049;-74
2022/10/02 05:38:50;;;;;;;5.72;4.05;;;15.60;82.30;;;;;;10797189;33;20024;-74
2022/10/02 05:45:36;;;;;;;6.07;3.10;;;15.60;82.20;;;;;;10796345;33;20051;-74
2022/10/02 05:51:46;;;;;;;4.72;3.40;;;15.60;82.10;;;;;;10716734;33;20060;-74
2022/10/02 05:58:30;;;;;;;4.30;3.67;;;15.50;82.20;;;;;;10718730;33;20295;-74
2022/10/02 06:05:21;;;;;;;4.78;3.83;;;15.40;82.30;;;;;;10720024;33;20059;-74
2022/10/02 06:11:37;;;;;;;7.23;3.03;;;15.50;82.30;;;;;;10715942;33;20055;-74
2022/10/02 06:17:57;;;;;;;5.50;3.97;;;15.50;82.10;;;;;;10744887;33;20071;-74
2022/10/02 06:24:01;;;;;;;;;;;15.60;82.40;;;;;;10797728;32;20035;-74
2022/10/02 06:30:13;;;;;;;4.65;3.40;;;15.80;82.30;;;;;;10832702;32;19923;-75
2022/10/02 06:36:41;;;;;;;3.65;3.00;;;15.80;82.40;;;;;;10832296;32;20050;-75
2022/10/02 06:43:02;;;;;;;4.20;3.17;;;16.00;82.40;;;;;;10832184;32;20031;-74
2022/10/02 06:49:29;;;;;;;4.05;2.80;;;16.00;82.30;;;;;;10831211;32;20020;-75
2022/10/02 06:55:54;;;;;;;5.05;2.78;;;16.10;82.30;;;;;;10830953;32;20019;-74
2022/10/02 07:02:02;;;;;;;4.12;3.40;;;16.10;82.20;;;;;;10831792;32;20016;-75
2022/10/02 07:08:22;;;;;;;4.20;2.97;;;16.10;82.30;;;;;;10828840;32;20024;-75
2022/10/02 07:14:39;;;;;;;;;;;16.20;82.10;;;;;;10814483;33;20016;-76
2022/10/02 07:21:17;;;;;;;4.62;2.70;;;16.20;82.10;;;;;;10826114;32;19931;-76
2022/10/02 07:27:33;;;;;;;4.53;3.25;;;16.20;82.10;;;;;;10738431;33;20070;-76
2022/10/02 07:34:11;;;;;;;5.07;3.25;;;16.30;82.20;;;;;;10753533;33;20021;-75
2022/10/02 07:40:35;;;;;;;3.97;2.85;;;16.40;82.30;;;;;;10753526;33;20028;-76
2022/10/02 07:47:07;;;;;;;6.15;3.53;;;16.40;82.20;;;;;;10752354;33;20390;-75
2022/10/02 07:53:20;;;;;;;;;;;16.50;82.10;;;;;;10752790;33;20028;-77
2022/10/02 07:59:23;;;;;;;5.47;4.05;;;16.50;81.90;;;;;;10752663;33;19947;-76
2022/10/02 08:05:43;;;;;;;3.87;2.85;;;16.50;81.80;;;;;;10830125;32;20294;-75
2022/10/02 08:12:24;;;;;;;8.82;4.87;;;16.60;81.70;;;;;;10475579;32;11932724;-75
2022/10/02 08:18:37;;;;;;;5.00;2.92;;;16.70;81.50;;;;;;10721098;33;20059;-76
2022/10/02 08:24:46;;;;;;;7.65;3.78;;;16.80;81.40;;;;;;10722752;33;20025;-76
2022/10/02 08:30:49;;;;;;;4.93;3.28;;;16.80;81.40;;;;;;10719542;33;20052;-76
2022/10/02 08:36:59;;;;;;;7.55;4.55;;;16.90;81.20;;;;;;10720045;33;20364;-76
2022/10/02 08:43:23;;;;;;;4.00;3.15;;;17.00;81.00;;;;;;10723981;33;20040;-76
2022/10/02 08:50:07;;;;;;;8.00;5.43;;;17.10;81.00;;;;;;10757048;33;20024;-78
2022/10/02 08:56:43;;;;;;;7.12;4.93;;;17.30;80.70;;;;;;10753820;33;20055;-75
2022/10/02 09:02:45;;;;;;;6.97;4.03;;;17.50;80.40;;;;;;10757752;33;20029;-76
2022/10/02 09:09:18;;;;;;;9.15;4.90;;;17.70;80.20;;;;;;10794342;33;20090;-74
2022/10/02 09:15:45;;;;;;;4.95;2.90;;;17.80;80.00;;;;;;10793804;33;20020;-75
2022/10/02 09:22:19;;;;;;;9.00;5.55;;;18.00;80.30;;;;;;10720830;33;20032;-77
2022/10/02 09:28:30;;;;;;;7.12;5.30;;;18.10;80.20;;;;;;10757686;33;20440;-77
2022/10/02 09:35:02;;;;;;;9.93;7.20;;;18.20;80.20;;;;;;10752629;33;20054;-76
2022/10/02 09:41:32;;;;;;;7.82;5.87;;;18.30;80.60;;;;;;10756379;33;20025;-75
2022/10/02 09:48:13;;;;;;;10.20;7.93;;;18.40;80.60;;;;;;10752294;33;20044;-77
2022/10/02 09:54:33;;;;;;;12.97;5.33;;;18.50;80.50;;;;;;10752220;33;20025;-75
2022/10/02 10:00:58;;;;;;;9.18;6.72;;;18.70;80.20;;;;;;10751716;33;20016;-76
2022/10/02 10:07:25;;;;;;;6.03;4.43;;;18.80;79.90;;;;;;10831422;32;20062;-75
2022/10/02 10:14:01;;;;;;;10.48;8.60;;;19.00;79.60;;;;;;10819615;32;20078;-76
2022/10/02 10:20:32;;;;;;;11.82;6.78;;;19.20;79.20;;;;;;10720092;33;20062;-74
2022/10/02 10:27:18;;;;;;;10.20;6.07;;;19.30;79.10;;;;;;10718985;33;20052;-74
2022/10/02 10:33:29;;;;;;;13.00;7.32;;;19.40;78.70;;;;;;10714841;33;20067;-75
2022/10/02 10:40:02;;;;;;;8.27;6.25;;;19.60;78.40;;;;;;10718683;33;20382;-75
2022/10/02 10:46:49;;;;;;;4.87;3.55;;;19.80;77.90;;;;;;10718000;33;20064;-76
2022/10/02 10:53:23;;;;;;;8.77;5.45;;;20.10;77.70;;;;;;10735566;32;20020;-76
2022/10/02 10:59:41;;;;;;;8.73;5.55;;;20.40;77.20;;;;;;10818175;32;20023;-76
2022/10/02 11:06:25;;;;;;;9.18;6.28;;;20.80;76.60;;;;;;10830173;32;20027;-76
2022/10/02 11:12:38;;;;;;;8.85;5.62;;;21.00;76.20;;;;;;10830907;32;20055;-75
2022/10/02 11:19:06;;;;;;;8.90;4.53;;;20.80;75.80;;;;;;10830581;32;20027;-75
2022/10/02 11:25:27;;;;;;;7.20;5.05;;;20.80;76.20;;;;;;10830289;32;20027;-76
2022/10/02 11:31:52;;;;;;;6.20;4.03;;;21.10;75.90;;;;;;10816964;32;20051;-75
2022/10/02 11:38:03;;;;;;;7.50;5.55;;;21.40;74.70;;;;;;10830042;32;20024;-75
2022/10/02 11:44:33;;;;;;;7.10;4.05;;;21.60;73.70;;;;;;10825780;32;20389;-76
2022/10/02 11:51:09;;;;;;;5.53;3.33;;;21.80;73.50;;;;;;10829629;33;20032;-76
2022/10/02 11:57:33;;;;;;;7.40;4.75;;;21.50;73.50;;;;;;10828097;33;20019;-75
2022/10/02 12:04:10;;;;;;;6.12;3.90;;;21.30;74.00;;;;;;10829402;33;20384;-76
2022/10/02 12:10:32;;;;;;;7.10;4.03;;;20.90;73.90;;;;;;10812121;33;20024;-75
2022/10/02 12:16:47;;;;;;;4.05;2.90;;;20.70;74.20;;;;;;10829126;33;20024;-75
2022/10/02 12:29:42;;;;;;;6.40;3.25;;;20.40;74.70;;;;;;10829009;33;20051;-75
2022/10/02 12:36:04;;;;;;;7.35;3.60;;;20.30;74.80;;;;;;10815906;33;20042;-75
2022/10/02 12:42:16;;;;;;;4.22;3.00;;;20.30;74.90;;;;;;10815481;33;20389;-75
2022/10/02 12:48:44;;;;;;;6.22;2.97;;;20.30;74.90;;;;;;10828681;33;20067;-76
2022/10/02 12:55:14;;;;;;;3.42;2.62;;;20.50;74.20;;;;;;10829319;32;20036;-75
2022/10/02 13:01:43;;;;;;;6.45;3.12;;;20.80;73.60;;;;;;10835294;32;20020;-75
2022/10/02 13:08:08;;;;;;;5.20;3.53;;;20.90;73.40;;;;;;10821565;32;20074;-75
2022/10/02 13:14:34;;;;;;;7.87;6.45;;;21.00;73.10;;;;;;10821739;32;20020;-75
2022/10/02 13:21:10;;;;;;;4.43;3.03;;;21.20;72.70;;;;;;10818620;33;20025;-74
2022/10/02 13:27:15;;;;;;;4.90;3.03;;;21.20;72.60;;;;;;10718770;33;20036;-76
2022/10/02 13:33:24;;;;;;;6.62;3.95;;;21.30;72.20;;;;;;10720344;33;20033;-75
2022/10/02 13:39:55;;;;;;;;;;;21.30;72.00;;;;;;10719065;33;20443;-75
2022/10/02 13:46:09;;;;;;;5.40;3.15;;;21.30;71.60;;;;;;10747134;33;19927;-75
2022/10/02 13:52:49;;;;;;;4.47;2.75;;;21.30;71.10;;;;;;10756350;33;20373;-76
2022/10/02 13:59:21;;;;;;;6.93;4.07;;;21.30;71.10;;;;;;10647707;33;20041;-76
2022/10/02 14:05:42;;;;;;;6.45;3.37;;;21.60;70.60;;;;;;10682042;33;20038;-75
2022/10/02 14:12:09;;;;;;;5.37;3.30;;;21.80;70.60;;;;;;10687945;27;20029;-74
2022/10/02 14:18:27;;;;;;;6.70;4.65;;;21.80;70.60;;;;;;10639596;33;20037;-76
2022/10/02 14:25:12;;;;;;;11.02;4.87;;;21.80;70.80;;;;;;10610936;33;20068;-74
2022/10/02 14:31:38;;;;;;;4.85;3.40;;;21.80;70.90;;;;;;10544205;33;20027;-75
2022/10/02 14:38:29;;;;;;;9.10;5.25;;;21.70;71.20;;;;;;10703606;33;20063;-76
2022/10/02 14:45:00;;;;;;;7.82;5.00;;;21.60;71.60;;;;;;10648189;33;20030;-76
2022/10/02 14:51:46;;;;;;;7.30;4.53;;;21.50;71.90;;;;;;10657884;33;20428;-75
2022/10/02 14:58:01;;;;;;;8.57;4.32;;;21.50;71.80;;;;;;10645341;33;20061;-76
2022/10/02 15:04:15;;;;;;;6.10;4.00;;;21.60;71.50;;;;;;10612379;33;20030;-76
2022/10/02 15:10:32;;;;;;;6.28;4.28;;;21.60;71.50;;;;;;10646490;33;20044;-76
2022/10/02 15:23:12;;;;;;;7.22;4.70;;;22.50;69.20;;;;;;10793746;33;20020;-76
2022/10/02 15:29:52;;;;;;;8.65;7.28;;;22.60;69.00;;;;;;10789681;33;20054;-76
2022/10/02 15:36:18;;;;;;;5.30;4.40;;;23.30;67.80;;;;;;10789624;33;20024;-76
2022/10/02 15:42:50;;;;;;;6.75;4.87;;;24.10;66.70;;;;;;10793372;33;20031;-74
2022/10/02 15:49:10;;;;;;;6.40;4.47;;;24.70;65.50;;;;;;10789148;33;20063;-75
2022/10/02 15:55:37;;;;;;;5.40;3.58;;;24.70;65.30;;;;;;10788761;33;20024;-75
2022/10/02 16:02:25;;;;;;;12.77;3.65;;;24.80;65.30;;;;;;10792837;33;20043;-74
2022/10/02 16:09:07;;;;;;;5.95;3.75;;;24.80;65.30;;;;;;10788533;33;20024;-75
2022/10/02 16:15:42;;;;;;;6.62;3.62;;;24.30;65.90;;;;;;10783132;33;20024;-74
2022/10/02 16:28:44;;;;;;;4.70;3.55;;;22.40;69.70;;;;;;10791843;33;20024;-74
2022/10/02 16:35:18;;;;;;;6.15;4.12;;;21.90;70.80;;;;;;10799227;33;20028;-74
2022/10/02 16:41:37;;;;;;;7.00;5.05;;;21.50;71.40;;;;;;10799216;33;20043;-74
2022/10/02 16:47:44;;;;;;;7.05;5.40;;;21.30;72.00;;;;;;10798727;33;20083;-74
2022/10/02 16:54:03;;;;;;;11.80;6.20;;;21.10;72.40;;;;;;10793588;33;20028;-74
2022/10/02 17:00:29;;;;;;;10.07;6.07;;;20.80;72.70;;;;;;10797603;33;20389;-74
2022/10/02 17:07:18;;;;;;;7.62;5.87;;;20.70;72.90;;;;;;10798203;33;20116;-75
2022/10/02 17:13:25;;;;;;;13.93;6.95;;;20.50;73.20;;;;;;10797717;33;20333;-74
2022/10/02 17:19:44;;;;;;;11.88;6.78;;;20.40;73.40;;;;;;10796379;33;20035;-74
2022/10/02 17:26:11;;;;;;;9.95;6.70;;;20.30;73.60;;;;;;10795379;33;20058;-75
2022/10/02 17:32:50;;;;;;;11.95;6.90;;;20.20;74.10;;;;;;10797312;33;20422;-74
2022/10/02 17:39:03;;;;;;;8.07;5.60;;;20.00;74.20;;;;;;10794414;33;20024;-74
2022/10/02 17:45:41;;;;;;;9.88;5.03;;;20.00;74.30;;;;;;10792011;33;20329;-74
2022/10/02 17:56:26;;;;;;;8.00;5.30;;;19.90;74.60;;;;;;10790823;33;20036;-74
2022/10/02 17:58:38;;;;;;;5.80;4.85;;;19.80;74.80;;;;;;10796986;33;20047;-74
2022/10/02 18:04:45;;;;;;;5.22;4.45;;;19.80;74.90;;;;;;10794450;33;20028;-74
2022/10/02 18:11:07;;;;;;;6.47;4.77;;;19.70;75.20;;;;;;10795296;33;20055;-74
2022/10/02 18:17:25;;;;;;;8.63;5.82;;;19.70;75.10;;;;;;10791436;33;20055;-74
2022/10/02 18:24:06;;;;;;;8.77;5.87;;;19.70;75.20;;;;;;10795570;33;20020;-74
2022/10/02 18:30:52;;;;;;;6.65;5.12;;;19.60;75.30;;;;;;10791341;33;20021;-74
2022/10/02 18:37:19;;;;;;;22.08;7.22;;;19.60;75.30;;;;;;10795330;33;20448;-74
2022/10/02 18:43:56;;;;;;;10.10;6.68;;;19.50;75.50;;;;;;10792930;33;20024;-74
2022/10/02 18:50:05;;;;;;;7.70;5.80;;;19.40;75.70;;;;;;10793557;33;20423;-74
2022/10/02 18:56:10;;;;;;;6.90;6.12;;;19.30;75.80;;;;;;10794188;33;20021;-75
2022/10/02 19:02:31;;;;;;;14.40;6.05;;;19.30;76.20;;;;;;10791915;33;20040;-75
2022/10/02 19:08:53;;;;;;;11.10;7.95;;;19.30;76.40;;;;;;10794015;33;20037;-74
2022/10/02 19:15:19;;;;;;;10.30;7.53;;;19.30;76.40;;;;;;10790507;33;20036;-75
2022/10/02 19:21:21;;;;;;;8.45;6.35;;;19.30;76.60;;;;;;10788694;33;20044;-74
2022/10/02 19:27:52;;;;;;;10.57;8.27;;;19.20;76.80;;;;;;10793041;33;20075;-74
2022/10/02 19:34:05;;;;;;;7.25;6.07;;;19.20;76.80;;;;;;10789508;33;20051;-75
2022/10/02 19:40:18;;;;;;;17.17;8.18;;;19.20;77.10;;;;;;10792501;33;20031;-75
2022/10/02 19:46:43;;;;;;;10.32;8.50;;;19.00;77.50;;;;;;10792238;33;20028;-75
2022/10/02 19:52:53;;;;;;;10.05;7.10;;;19.00;77.50;;;;;;10789225;33;20064;-75
2022/10/02 19:59:18;;;;;;;8.70;7.32;;;19.00;77.30;;;;;;10792804;33;20409;-75
2022/10/02 20:05:28;;;;;;;11.65;8.27;;;19.10;77.30;;;;;;10798930;33;20062;-75
2022/10/02 20:11:37;;;;;;;8.60;7.10;;;19.10;77.20;;;;;;10799541;33;20389;-75
2022/10/02 20:17:40;;;;;;;10.52;7.55;;;19.10;77.30;;;;;;10799034;33;20072;-74
2022/10/02 20:23:56;;;;;;;10.65;8.02;;;19.00;77.20;;;;;;10799673;33;20025;-75
2022/10/02 20:30:09;;;;;;;15.07;8.52;;;19.10;77.60;;;;;;10795538;33;20054;-75
2022/10/02 20:36:40;;;;;;;9.80;7.45;;;18.90;78.00;;;;;;10799270;33;20021;-75
2022/10/02 20:42:49;;;;;;;8.52;7.40;;;18.80;78.20;;;;;;10795665;33;20055;-75
2022/10/02 20:48:50;;;;;;;;;;;18.80;78.10;;;;;;10794369;33;20020;-74
2022/10/02 20:55:29;;;;;;;15.60;11.05;;;18.80;78.10;;;;;;10798686;33;19927;-75
2022/10/02 21:02:21;;;;;;;11.95;8.68;;;18.80;78.30;;;;;;10799993;33;20020;-74
2022/10/02 21:08:45;;;;;;;13.07;10.50;;;18.80;78.10;;;;;;10798331;33;20055;-75
2022/10/02 21:15:04;;;;;;;7.70;6.85;;;18.80;78.20;;;;;;10797066;33;20024;-74
2022/10/02 21:21:34;;;;;;;9.33;8.33;;;18.80;78.10;;;;;;10798184;33;20265;-74
2022/10/02 21:28:12;;;;;;;12.30;9.60;;;18.80;78.20;;;;;;10797322;33;20051;-74
2022/10/02 21:34:23;;;;;;;17.65;11.38;;;18.80;78.50;;;;;;10797526;33;20055;-74
2022/10/02 21:41:09;;;;;;;12.82;9.82;;;18.70;78.80;;;;;;10797204;33;20019;-75
2022/10/02 21:47:48;;;;;;;11.18;10.02;;;18.80;78.70;;;;;;10792478;33;20037;-74
2022/10/02 21:54:20;;;;;;;12.43;10.18;;;18.70;78.70;;;;;;10787197;32;20405;-75
2022/10/02 22:00:27;;;;;;;13.90;10.98;;;18.70;79.00;;;;;;10786481;33;20070;-74
2022/10/02 22:07:08;;;;;;;12.40;10.50;;;18.60;79.20;;;;;;10792082;33;20032;-75
2022/10/02 22:13:22;;;;;;;13.07;10.68;;;18.60;79.20;;;;;;10759386;27;20036;-75
2022/10/02 22:19:57;;;;;;;14.05;11.25;;;18.60;79.30;;;;;;10683236;33;20050;-75
2022/10/02 22:26:44;;;;;;;15.68;12.35;;;18.60;79.50;;;;;;10678215;33;20072;-75
2022/10/02 22:33:10;;;;;;;14.10;10.15;;;18.50;79.50;;;;;;10682379;33;20219;-75
2022/10/02 22:39:12;;;;;;;15.50;12.40;;;18.60;79.40;;;;;;10678152;33;20060;-75
2022/10/02 22:45:38;;;;;;;14.43;12.80;;;18.60;79.40;;;;;;10682736;33;20034;-75
2022/10/02 22:51:51;;;;;;;14.05;11.12;;;18.60;79.60;;;;;;10754107;33;20518;-74
2022/10/02 22:58:18;;;;;;;15.80;12.43;;;18.50;79.60;;;;;;10758092;33;20020;-74
2022/10/02 23:04:45;;;;;;;14.45;11.00;;;18.50;79.40;;;;;;10758036;33;20072;-75
2022/10/02 23:11:50;;;;;;;13.18;11.73;;;18.60;79.50;;;;;;10753524;33;20028;-75
2022/10/02 23:18:05;;;;;;;14.60;11.55;;;18.60;79.60;;;;;;10678737;33;20025;-75
2022/10/02 23:24:32;;;;;;;13.50;10.40;;;18.60;79.60;;;;;;10680909;33;20029;-75
2022/10/02 23:30:41;;;;;;;16.40;12.73;;;18.60;79.60;;;;;;10676775;33;20042;-75
2022/10/02 23:36:51;;;;;;;11.50;9.73;;;18.60;79.70;;;;;;10679854;33;20162;-74
2022/10/02 23:43:00;;;;;;;10.18;9.13;;;18.60;79.60;;;;;;10680216;33;20071;-75
2022/10/02 23:49:03;;;;;;;11.25;9.32;;;18.60;79.80;;;;;;10681532;33;20165;-75
2022/10/02 23:55:05;;;;;;;15.23;11.73;;;18.50;80.00;;;;;;10754298;33;20024;-75
